createdAt,value
2024-05-09T00:02:24.766Z,99.90
2024-05-09T00:04:54.934Z,99.90
2024-05-09T00:07:25.026Z,99.90
2024-05-09T00:09:54.984Z,99.90
2024-05-09T00:12:25.080Z,99.90
2024-05-09T00:14:57.767Z,99.90
2024-05-09T00:17:27.895Z,99.90
2024-05-09T00:19:57.961Z,99.90
2024-05-09T00:22:27.962Z,99.90
2024-05-09T00:24:57.926Z,99.90
2024-05-09T00:27:28.466Z,99.90
2024-05-09T00:30:01.134Z,99.90
2024-05-09T00:32:31.353Z,99.90
2024-05-09T00:35:01.558Z,99.90
2024-05-09T00:37:31.583Z,99.90
2024-05-09T00:40:01.544Z,99.90
2024-05-09T00:42:31.523Z,99.90
2024-05-09T00:45:04.115Z,99.90
2024-05-09T00:47:34.416Z,99.90
2024-05-09T00:50:09.805Z,99.90
2024-05-09T00:52:43.271Z,99.90
2024-05-09T00:55:13.385Z,99.90
2024-05-09T00:57:43.815Z,99.90
2024-05-09T01:00:26.122Z,99.90
2024-05-09T01:03:01.153Z,99.90
2024-05-09T01:05:32.209Z,99.90
2024-05-09T01:08:02.444Z,99.90
2024-05-09T01:10:35.165Z,99.90
2024-05-09T01:13:07.067Z,99.90
2024-05-09T01:15:40.062Z,99.90
2024-05-09T01:18:13.470Z,99.90
2024-05-09T01:20:45.438Z,99.90
2024-05-09T01:23:18.355Z,99.90
2024-05-09T01:25:48.671Z,99.90
2024-05-09T01:28:18.651Z,99.90
2024-05-09T01:30:48.607Z,99.90
2024-05-09T01:33:18.747Z,99.90
2024-05-09T01:35:48.809Z,99.90
2024-05-09T01:38:21.439Z,99.90
2024-05-09T01:40:52.419Z,99.90
2024-05-09T01:43:22.382Z,99.90
2024-05-09T01:45:52.350Z,99.90
2024-05-09T01:48:22.515Z,99.90
2024-05-09T01:50:52.676Z,99.90
2024-05-09T01:53:25.444Z,99.90
2024-05-09T01:55:55.516Z,99.90
2024-05-09T01:58:25.526Z,99.90
2024-05-09T02:00:55.719Z,99.90
2024-05-09T02:03:25.879Z,99.90
2024-05-09T02:05:55.994Z,99.90
2024-05-09T02:08:28.757Z,99.90
2024-05-09T02:10:58.952Z,99.90
2024-05-09T02:13:28.985Z,99.90
2024-05-09T02:15:59.244Z,99.90
2024-05-09T02:18:29.302Z,99.90
2024-05-09T02:20:59.335Z,99.90
2024-05-09T02:23:32.037Z,99.90
2024-05-09T02:26:02.027Z,99.90
2024-05-09T02:28:32.035Z,99.90
2024-05-09T02:31:02.063Z,99.90
2024-05-09T02:33:32.180Z,99.90
2024-05-09T02:36:02.221Z,99.90
2024-05-09T02:38:32.337Z,99.90
2024-05-09T02:41:02.442Z,99.90
2024-05-09T02:43:29.774Z,99.90
2024-05-09T02:45:59.730Z,99.90
2024-05-09T02:48:27.202Z,99.90
2024-05-09T02:50:57.285Z,99.90
2024-05-09T02:53:24.720Z,99.90
2024-05-09T02:55:57.497Z,99.90
2024-05-09T02:58:27.490Z,99.90
2024-05-09T03:00:54.948Z,99.90
2024-05-09T03:03:26.389Z,99.90
2024-05-09T03:05:54.013Z,99.90
2024-05-09T03:08:24.070Z,99.90
2024-05-09T03:10:54.097Z,99.90
2024-05-09T03:13:24.326Z,99.90
2024-05-09T03:15:51.774Z,99.90
2024-05-09T03:18:21.888Z,99.90
2024-05-09T03:20:49.427Z,99.90
2024-05-09T03:23:19.599Z,99.90
2024-05-09T03:25:46.965Z,99.90
2024-05-09T03:28:19.603Z,99.90
2024-05-09T03:30:46.928Z,99.90
2024-05-09T03:33:19.382Z,99.90
2024-05-09T03:35:48.872Z,99.90
2024-05-09T03:38:19.433Z,99.90
2024-05-09T03:40:50.539Z,99.90
2024-05-09T03:43:23.437Z,99.90
2024-05-09T03:45:50.803Z,99.90
2024-05-09T03:48:21.231Z,99.90
2024-05-09T03:50:49.023Z,99.90
2024-05-09T03:53:19.238Z,99.90
2024-05-09T03:55:46.721Z,99.90
2024-05-09T03:58:16.772Z,99.90
2024-05-09T04:00:46.893Z,99.90
2024-05-09T04:03:17.389Z,99.90
2024-05-09T04:05:45.091Z,99.90
2024-05-09T04:08:15.773Z,99.90
2024-05-09T04:10:43.524Z,99.90
2024-05-09T04:13:13.670Z,99.90
2024-05-09T04:15:41.017Z,99.90
2024-05-09T04:18:13.621Z,99.90
2024-05-09T04:20:41.586Z,99.90
2024-05-09T04:23:15.054Z,99.90
2024-05-09T04:25:43.705Z,99.90
2024-05-09T04:28:13.832Z,99.90
2024-05-09T04:30:47.126Z,99.90
2024-05-09T04:33:20.857Z,99.90
2024-05-09T04:35:49.595Z,99.90
2024-05-09T04:38:19.712Z,99.90
2024-05-09T04:40:47.162Z,99.90
2024-05-09T04:43:19.634Z,99.90
2024-05-09T04:45:47.309Z,99.90
2024-05-09T04:48:20.108Z,99.90
2024-05-09T04:50:47.598Z,99.90
2024-05-09T04:53:18.989Z,99.90
2024-05-09T04:55:46.524Z,99.90
2024-05-09T04:58:16.553Z,99.90
2024-05-09T05:00:43.949Z,99.90
2024-05-09T05:03:15.871Z,99.90
2024-05-09T05:05:46.891Z,99.90
2024-05-09T05:08:18.209Z,99.90
2024-05-09T05:10:47.326Z,99.90
2024-05-09T05:13:24.714Z,99.90
2024-05-09T05:15:56.522Z,99.90
2024-05-09T05:18:28.549Z,99.90
2024-05-09T05:20:58.855Z,99.90
2024-05-09T05:23:28.950Z,99.90
2024-05-09T05:25:56.408Z,99.90
2024-05-09T05:28:26.516Z,99.90
2024-05-09T05:30:53.906Z,99.90
2024-05-09T05:33:24.671Z,99.90
2024-05-09T05:35:52.112Z,99.90
2024-05-09T05:38:27.511Z,99.90
2024-05-09T05:40:55.951Z,99.90
2024-05-09T05:43:26.060Z,99.90
2024-05-09T05:45:53.408Z,99.90
2024-05-09T05:48:23.627Z,99.90
2024-05-09T05:50:51.103Z,99.90
2024-05-09T05:53:21.212Z,99.90
2024-05-09T05:55:51.248Z,99.90
2024-05-09T05:58:21.681Z,99.90
2024-05-09T06:00:49.091Z,99.90
2024-05-09T06:03:19.102Z,99.90
2024-05-09T06:05:46.941Z,99.90
2024-05-09T06:08:17.379Z,99.90
2024-05-09T06:10:45.082Z,99.90
2024-05-09T06:13:18.292Z,99.90
2024-05-09T06:15:45.627Z,99.90
2024-05-09T06:18:17.008Z,99.90
2024-05-09T06:20:44.699Z,99.90
2024-05-09T06:23:15.318Z,99.90
2024-05-09T06:25:44.086Z,99.90
2024-05-09T06:28:14.222Z,99.90
2024-05-09T06:30:44.182Z,99.90
2024-05-09T06:33:16.368Z,99.90
2024-05-09T06:35:44.732Z,99.90
2024-05-09T06:38:15.089Z,99.90
2024-05-09T06:40:43.877Z,99.90
2024-05-09T06:43:17.354Z,99.90
2024-05-09T06:45:49.869Z,99.90
2024-05-09T06:48:21.849Z,99.90
2024-05-09T06:50:50.749Z,99.90
2024-05-09T06:53:24.177Z,99.90
2024-05-09T06:55:51.781Z,99.90
2024-05-09T06:58:21.823Z,99.90
2024-05-09T07:00:51.965Z,99.90
2024-05-09T07:03:22.168Z,99.90
2024-05-09T07:05:50.060Z,99.90
2024-05-09T07:08:20.327Z,99.90
2024-05-09T07:10:47.996Z,99.90
2024-05-09T07:13:18.497Z,99.90
2024-05-09T07:15:45.830Z,99.90
2024-05-09T07:18:20.365Z,99.90
2024-05-09T07:20:49.398Z,99.90
2024-05-09T07:23:20.699Z,99.90
2024-05-09T07:25:48.346Z,99.90
2024-05-09T07:28:19.660Z,99.90
2024-05-09T07:30:47.072Z,99.90
2024-05-09T07:33:24.047Z,99.90
2024-05-09T07:35:54.754Z,99.90
2024-05-09T07:38:22.224Z,99.90
2024-05-09T07:40:52.491Z,99.90
2024-05-09T07:43:19.952Z,99.90
2024-05-09T07:45:54.087Z,99.90
2024-05-09T07:50:00.233Z,99.90
2024-05-09T07:53:51.025Z,99.90
2024-05-09T07:56:24.416Z,99.90
2024-05-09T07:58:53.510Z,99.90
2024-05-09T08:01:25.870Z,99.90
2024-05-09T08:03:56.488Z,99.90
2024-05-09T08:06:27.398Z,99.90
2024-05-09T08:08:54.835Z,99.90
2024-05-09T08:11:24.866Z,99.90
2024-05-09T08:13:52.294Z,99.90
2024-05-09T08:16:22.555Z,99.90
2024-05-09T08:18:50.211Z,99.90
2024-05-09T08:21:22.913Z,99.90
2024-05-09T08:23:50.349Z,99.90
2024-05-09T08:26:20.285Z,99.90
2024-05-09T08:28:47.689Z,99.90
2024-05-09T08:31:18.070Z,99.90
2024-05-09T08:33:47.668Z,99.90
2024-05-09T08:36:18.084Z,99.90
2024-05-09T08:38:48.063Z,99.90
2024-05-09T08:41:18.304Z,99.90
2024-05-09T08:43:47.070Z,99.90
2024-05-09T08:46:18.871Z,99.90
2024-05-09T08:48:48.314Z,99.90
2024-05-09T08:51:18.537Z,99.90
2024-05-09T08:53:48.610Z,99.90
2024-05-09T08:56:20.002Z,99.90
2024-05-09T08:58:49.759Z,99.90
2024-05-09T09:01:21.822Z,99.90
2024-05-09T09:03:53.603Z,99.90
2024-05-09T09:06:25.140Z,99.90
2024-05-09T09:08:55.632Z,99.90
2024-05-09T09:11:25.910Z,99.90
2024-05-09T09:13:53.222Z,99.90
2024-05-09T09:16:23.518Z,99.90
2024-05-09T09:18:53.608Z,99.90
2024-05-09T09:21:23.625Z,99.90
2024-05-09T09:23:50.933Z,99.90
2024-05-09T09:26:23.546Z,97.50
2024-05-09T09:28:51.030Z,93.20
2024-05-09T09:31:21.835Z,91.40
2024-05-09T09:33:49.603Z,92.40
2024-05-09T09:36:19.775Z,92.00
2024-05-09T09:38:47.900Z,92.20
2024-05-09T09:41:25.142Z,93.40
2024-05-09T09:43:53.746Z,90.40
2024-05-09T09:46:24.727Z,90.60
2024-05-09T09:48:53.166Z,89.20
2024-05-09T09:51:24.302Z,87.80
2024-05-09T09:53:53.504Z,87.10
2024-05-09T09:56:26.694Z,87.40
2024-05-09T09:58:56.650Z,82.90
2024-05-09T10:01:26.683Z,84.30
2024-05-09T10:03:54.407Z,85.90
2024-05-09T10:06:25.758Z,89.30
2024-05-09T10:08:54.175Z,91.80
2024-05-09T10:11:27.413Z,91.30
2024-05-09T10:13:56.987Z,90.40
2024-05-09T10:16:27.621Z,86.80
2024-05-09T10:18:55.336Z,82.90
2024-05-09T10:21:25.587Z,83.00
2024-05-09T10:24:00.027Z,83.30
2024-05-09T10:26:36.660Z,81.10
2024-05-09T10:29:12.465Z,79.30
2024-05-09T10:31:45.009Z,79.00
2024-05-09T10:34:22.884Z,82.10
2024-05-09T10:36:56.583Z,83.00
2024-05-09T10:39:25.630Z,84.10
2024-05-09T10:41:58.265Z,86.10
2024-05-09T10:44:25.653Z,84.50
2024-05-09T10:46:56.404Z,82.20
2024-05-09T10:49:23.896Z,80.30
2024-05-09T10:51:55.973Z,79.30
2024-05-09T10:54:23.325Z,80.80
2024-05-09T10:57:01.747Z,79.70
2024-05-09T10:59:33.937Z,79.20
2024-05-09T11:02:07.890Z,80.90
2024-05-09T11:04:36.960Z,75.80
2024-05-09T11:07:11.366Z,75.60
2024-05-09T11:09:39.975Z,73.20
2024-05-09T11:12:13.131Z,73.80
2024-05-09T11:14:40.560Z,77.20
2024-05-09T11:17:11.099Z,78.40
2024-05-09T11:19:40.022Z,78.50
2024-05-09T11:22:12.599Z,79.20
2024-05-09T11:24:40.636Z,81.00
2024-05-09T11:27:13.249Z,82.40
2024-05-09T11:29:42.370Z,80.00
2024-05-09T11:32:16.441Z,80.90
2024-05-09T11:34:43.963Z,81.90
2024-05-09T11:37:14.542Z,80.80
2024-05-09T11:39:42.003Z,83.40
2024-05-09T11:42:14.671Z,81.60
2024-05-09T11:44:42.011Z,84.00
2024-05-09T11:47:12.076Z,83.50
2024-05-09T11:49:39.496Z,84.20
2024-05-09T11:52:09.677Z,84.60
2024-05-09T11:54:37.244Z,80.70
2024-05-09T11:57:07.614Z,85.60
2024-05-09T11:59:37.702Z,84.60
2024-05-09T12:02:08.053Z,85.00
2024-05-09T12:04:35.679Z,84.90
2024-05-09T12:07:06.245Z,84.90
2024-05-09T12:09:34.468Z,86.00
2024-05-09T12:12:04.605Z,88.30
2024-05-09T12:14:32.061Z,89.30
2024-05-09T12:17:05.724Z,87.90
2024-05-09T12:19:33.299Z,85.80
2024-05-09T12:22:03.470Z,89.40
2024-05-09T12:24:31.036Z,89.30
2024-05-09T12:27:01.239Z,89.10
2024-05-09T12:29:28.637Z,87.90
2024-05-09T12:31:58.728Z,88.90
2024-05-09T12:34:28.927Z,89.10
2024-05-09T12:36:58.996Z,90.20
2024-05-09T12:39:26.394Z,90.90
2024-05-09T12:41:56.345Z,91.30
2024-05-09T12:44:23.761Z,91.40
2024-05-09T12:46:54.008Z,92.50
2024-05-09T12:49:24.431Z,92.80
2024-05-09T12:51:57.242Z,92.60
2024-05-09T12:54:24.619Z,92.00
2024-05-09T12:56:54.711Z,91.60
2024-05-09T12:59:22.050Z,91.30
2024-05-09T13:01:52.142Z,91.60
2024-05-09T13:04:19.754Z,91.40
2024-05-09T13:06:50.067Z,92.00
2024-05-09T13:09:20.114Z,91.70
2024-05-09T13:11:50.260Z,91.60
2024-05-09T13:14:17.721Z,92.30
2024-05-09T13:16:47.853Z,92.10
2024-05-09T13:19:15.344Z,92.30
2024-05-09T13:21:45.375Z,92.40
2024-05-09T13:24:12.837Z,92.90
2024-05-09T13:26:45.569Z,92.70
2024-05-09T13:29:12.984Z,93.00
2024-05-09T13:31:45.865Z,91.70
2024-05-09T13:34:13.483Z,92.90
2024-05-09T13:36:43.968Z,92.70
2024-05-09T13:39:11.594Z,92.60
2024-05-09T13:41:44.478Z,92.00
2024-05-09T13:44:12.195Z,91.50
2024-05-09T13:46:45.394Z,91.80
2024-05-09T13:49:16.913Z,91.80
2024-05-09T13:51:47.271Z,92.00
2024-05-09T13:54:16.672Z,92.50
2024-05-09T13:56:49.991Z,92.70
2024-05-09T13:59:17.413Z,92.60
2024-05-09T14:01:47.537Z,92.20
2024-05-09T14:04:15.122Z,92.00
2024-05-09T14:06:45.564Z,92.20
2024-05-09T14:09:13.031Z,92.40
2024-05-09T14:11:43.069Z,92.80
2024-05-09T14:14:13.125Z,92.90
2024-05-09T14:16:44.696Z,93.40
2024-05-09T14:19:12.353Z,93.50
2024-05-09T14:21:42.548Z,93.70
2024-05-09T14:24:09.891Z,93.90
2024-05-09T14:26:40.113Z,94.30
2024-05-09T14:29:07.785Z,94.20
2024-05-09T14:31:40.472Z,94.80
2024-05-09T14:34:07.997Z,94.80
2024-05-09T14:36:38.136Z,94.30
2024-05-09T14:39:05.539Z,94.00
2024-05-09T14:41:35.689Z,94.80
2024-05-09T14:44:03.140Z,94.50
2024-05-09T14:46:33.147Z,95.20
2024-05-09T14:49:03.300Z,94.40
2024-05-09T14:51:33.378Z,94.70
2024-05-09T14:54:00.820Z,94.80
2024-05-09T14:56:30.844Z,94.70
2024-05-09T14:58:58.175Z,94.90
2024-05-09T15:01:28.336Z,94.90
2024-05-09T15:03:57.336Z,95.10
2024-05-09T15:06:30.065Z,95.30
2024-05-09T15:08:57.745Z,95.70
2024-05-09T15:11:27.967Z,95.10
2024-05-09T15:13:55.299Z,96.10
2024-05-09T15:16:25.414Z,95.70
2024-05-09T15:18:53.216Z,95.50
2024-05-09T15:21:23.819Z,95.60
2024-05-09T15:23:53.869Z,96.40
2024-05-09T15:26:24.076Z,96.20
2024-05-09T15:28:51.419Z,96.00
2024-05-09T15:31:21.441Z,96.50
2024-05-09T15:33:48.824Z,96.10
2024-05-09T15:36:18.971Z,96.70
2024-05-09T15:38:46.560Z,95.90
2024-05-09T15:41:19.190Z,95.00
2024-05-09T15:43:46.500Z,92.80
2024-05-09T15:46:16.603Z,92.70
2024-05-09T15:48:44.812Z,94.40
2024-05-09T15:51:15.015Z,95.70
2024-05-09T15:53:42.331Z,95.80
2024-05-09T15:56:13.006Z,95.70
2024-05-09T15:58:43.459Z,95.70
2024-05-09T16:01:15.110Z,94.90
2024-05-09T16:03:42.664Z,95.50
2024-05-09T16:06:13.294Z,96.40
2024-05-09T16:08:40.643Z,96.70
2024-05-09T16:11:10.708Z,96.80
2024-05-09T16:13:38.331Z,96.30
2024-05-09T16:16:11.779Z,95.90
2024-05-09T16:18:39.313Z,95.70
2024-05-09T16:21:09.445Z,95.70
2024-05-09T16:23:39.873Z,96.00
2024-05-09T16:26:10.413Z,97.00
2024-05-09T16:28:37.952Z,97.20
2024-05-09T16:31:10.776Z,97.20
2024-05-09T16:33:40.423Z,97.40
2024-05-09T16:36:10.826Z,97.40
2024-05-09T16:38:40.120Z,97.00
2024-05-09T16:41:10.064Z,97.40
2024-05-09T16:43:37.402Z,97.60
2024-05-09T16:46:10.385Z,97.20
2024-05-09T16:48:40.814Z,98.10
2024-05-09T16:51:10.877Z,97.80
2024-05-09T16:53:38.794Z,97.10
2024-05-09T16:56:09.764Z,98.10
2024-05-09T16:58:37.172Z,98.70
2024-05-09T17:01:07.628Z,97.70
2024-05-09T17:03:37.824Z,97.90
2024-05-09T17:06:08.327Z,98.10
2024-05-09T17:08:37.696Z,98.70
2024-05-09T17:11:08.118Z,98.90
2024-05-09T17:13:39.407Z,99.60
2024-05-09T17:16:12.535Z,99.90
2024-05-09T17:18:46.262Z,98.90
2024-05-09T17:21:16.377Z,99.40
2024-05-09T17:23:43.723Z,99.90
2024-05-09T17:26:14.016Z,99.90
2024-05-09T17:28:41.371Z,99.90
2024-05-09T17:31:11.419Z,99.90
2024-05-09T17:33:42.791Z,99.90
2024-05-09T17:36:12.777Z,99.90
2024-05-09T17:38:40.753Z,99.90
2024-05-09T17:41:10.804Z,99.90
2024-05-09T17:43:38.211Z,99.90
2024-05-09T17:46:08.465Z,99.90
2024-05-09T17:48:36.151Z,99.90
2024-05-09T17:51:09.742Z,99.90
2024-05-09T17:53:37.270Z,99.90
2024-05-09T17:56:07.650Z,99.90
2024-05-09T17:58:35.422Z,99.90
2024-05-09T18:01:05.581Z,99.90
2024-05-09T18:03:33.320Z,99.90
2024-05-09T18:06:03.553Z,99.90
2024-05-09T18:08:33.551Z,99.90
2024-05-09T18:11:03.556Z,99.90
2024-05-09T18:13:30.982Z,99.90
2024-05-09T18:16:01.132Z,99.90
2024-05-09T18:18:28.655Z,99.90
2024-05-09T18:20:58.628Z,99.90
2024-05-09T18:23:26.030Z,99.90
2024-05-09T18:25:58.870Z,99.90
2024-05-09T18:28:26.414Z,99.90
2024-05-09T18:30:56.670Z,99.90
2024-05-09T18:33:24.924Z,99.90
2024-05-09T18:35:55.144Z,99.90
2024-05-09T18:38:26.833Z,99.90
2024-05-09T18:40:59.658Z,99.90
2024-05-09T18:43:31.673Z,99.90
2024-05-09T18:46:08.536Z,99.90
2024-05-09T18:48:36.133Z,99.90
2024-05-09T18:51:06.332Z,99.90
2024-05-09T18:53:33.720Z,99.90
2024-05-09T18:56:06.572Z,99.90
2024-05-09T18:58:33.985Z,99.90
2024-05-09T19:01:04.497Z,99.90
2024-05-09T19:03:32.331Z,99.90
2024-05-09T19:06:02.728Z,99.90
2024-05-09T19:08:30.166Z,99.90
2024-05-09T19:11:02.111Z,99.90
2024-05-09T19:13:32.222Z,99.90
2024-05-09T19:16:02.296Z,99.90
2024-05-09T19:18:30.910Z,99.90
2024-05-09T19:21:01.008Z,99.90
2024-05-09T19:23:29.007Z,99.90
2024-05-09T19:25:59.389Z,99.90
2024-05-09T19:28:26.809Z,99.90
2024-05-09T19:30:59.471Z,99.90
2024-05-09T19:33:26.886Z,99.90
2024-05-09T19:35:56.935Z,99.90
2024-05-09T19:38:24.376Z,99.90
2024-05-09T19:40:54.573Z,99.90
2024-05-09T19:43:22.176Z,99.90
2024-05-09T19:45:52.392Z,99.90
2024-05-09T19:48:25.177Z,99.90
2024-05-09T19:50:53.286Z,99.90
2024-05-09T19:53:23.598Z,99.90
2024-05-09T19:55:51.041Z,99.90
2024-05-09T19:58:21.075Z,99.90
2024-05-09T20:00:48.801Z,99.90
2024-05-09T20:03:19.266Z,99.90
2024-05-09T20:05:49.435Z,99.90
2024-05-09T20:08:19.627Z,99.90
2024-05-09T20:10:47.186Z,99.90
2024-05-09T20:13:17.275Z,99.90
2024-05-09T20:15:44.829Z,99.90
2024-05-09T20:18:15.036Z,99.90
2024-05-09T20:20:44.613Z,99.90
2024-05-09T20:23:18.120Z,99.90
2024-05-09T20:25:45.480Z,99.90
2024-05-09T20:28:15.549Z,99.90
2024-05-09T20:30:43.060Z,99.90
2024-05-09T20:33:14.279Z,99.90
2024-05-09T20:35:41.805Z,99.90
2024-05-09T20:38:11.771Z,99.90
2024-05-09T20:40:41.996Z,99.90
2024-05-09T20:43:12.223Z,99.90
2024-05-09T20:45:40.283Z,99.90
2024-05-09T20:48:12.034Z,99.90
2024-05-09T20:50:41.792Z,99.90
2024-05-09T20:53:14.655Z,99.90
2024-05-09T20:55:45.679Z,99.90
2024-05-09T20:58:16.097Z,99.90
2024-05-09T21:00:45.729Z,99.90
2024-05-09T21:03:17.896Z,99.90
2024-05-09T21:05:46.045Z,99.90
2024-05-09T21:08:16.367Z,99.90
2024-05-09T21:10:46.433Z,99.90
2024-05-09T21:13:16.527Z,99.90
2024-05-09T21:15:43.991Z,99.90
2024-05-09T21:18:14.215Z,99.90
2024-05-09T21:20:41.776Z,99.90
2024-05-09T21:23:11.778Z,99.90
2024-05-09T21:25:39.097Z,99.90
2024-05-09T21:28:11.961Z,99.90
2024-05-09T21:30:42.454Z,99.90
2024-05-09T21:33:15.014Z,99.90
2024-05-09T21:35:43.836Z,99.90
2024-05-09T21:38:14.765Z,99.90
2024-05-09T21:40:42.782Z,99.90
2024-05-09T21:43:15.626Z,99.90
2024-05-09T21:45:44.036Z,99.90
2024-05-09T21:48:15.840Z,99.90
2024-05-09T21:50:43.309Z,99.90
2024-05-09T21:53:14.000Z,99.90
2024-05-09T21:55:41.819Z,99.90
2024-05-09T21:58:11.944Z,99.90
2024-05-09T22:00:46.460Z,99.90
2024-05-09T22:03:14.564Z,99.90
2024-05-09T22:05:45.182Z,99.90
2024-05-09T22:08:13.278Z,99.90
2024-05-09T22:10:43.651Z,99.90
2024-05-09T22:13:11.123Z,99.90
2024-05-09T22:15:44.657Z,99.90
2024-05-09T22:18:12.243Z,99.90
2024-05-09T22:20:45.426Z,99.90
2024-05-09T22:23:14.908Z,99.90
2024-05-09T22:25:45.153Z,99.90
2024-05-09T22:28:15.367Z,99.90
2024-05-09T22:30:48.400Z,99.90
2024-05-09T22:33:16.077Z,99.90
2024-05-09T22:35:47.595Z,99.90
2024-05-09T22:38:15.001Z,99.90
2024-05-09T22:40:48.561Z,99.90
2024-05-09T22:43:19.542Z,99.90
2024-05-09T22:45:52.774Z,99.90
2024-05-09T22:48:20.702Z,99.90
2024-05-09T22:50:50.784Z,99.90
2024-05-09T22:53:18.626Z,99.90
2024-05-09T22:55:48.597Z,99.90
2024-05-09T22:58:16.093Z,99.90
2024-05-09T23:00:46.452Z,99.90
2024-05-09T23:03:16.854Z,99.90
2024-05-09T23:05:47.494Z,99.90
2024-05-09T23:08:14.833Z,99.90
2024-05-09T23:10:44.981Z,99.90
2024-05-09T23:13:12.605Z,99.90
2024-05-09T23:15:42.778Z,99.90
2024-05-09T23:18:10.596Z,99.90
2024-05-09T23:20:43.453Z,99.90
2024-05-09T23:23:12.106Z,99.90
2024-05-09T23:25:42.778Z,99.90
2024-05-09T23:28:10.471Z,99.90
2024-05-09T23:30:41.748Z,99.90
2024-05-09T23:33:11.307Z,99.90
2024-05-09T23:35:45.064Z,99.90
2024-05-09T23:38:13.110Z,99.90
2024-05-09T23:40:43.742Z,99.90
2024-05-09T23:43:12.528Z,99.90
2024-05-09T23:45:43.882Z,99.90
2024-05-09T23:48:11.765Z,99.90
2024-05-09T23:50:44.607Z,99.90
2024-05-09T23:53:12.080Z,99.90
2024-05-09T23:55:42.284Z,99.90
2024-05-09T23:58:09.832Z,99.90
